Time;durP1;ratioP1;P1;durP2;ratioP2;P2;SDS_P1;SDS_P2;PMS_P1;PMS_P2;Temp;Humidity;BMP_temperature;BMP_pressure;BME280_temperature;BME280_humidity;BME280_pressure;Samples;Min_cycle;Max_cycle;Signal;HPM_P1;HPM_P2
2022/04/28 00:00:47;;;;;;;15.50;6.45;;;;;;;16.52;61.19;100896.38;4977950;28;20105;-83
2022/04/28 00:03:13;;;;;;;11.48;7.47;;;;;;;16.49;61.70;100885.84;4977910;28;20476;-82
2022/04/28 00:05:39;;;;;;;24.13;8.80;;;;;;;16.32;61.64;100874.84;4976825;28;20022;-82
2022/04/28 00:08:05;;;;;;;21.25;7.50;;;;;;;16.41;61.96;100891.19;4977788;28;20027;-82
2022/04/28 00:10:31;;;;;;;22.13;7.82;;;;;;;16.40;61.97;100886.78;4985862;28;20046;-82
2022/04/28 00:12:57;;;;;;;19.60;9.48;;;;;;;16.23;61.93;100867.66;4987562;28;20414;-82
2022/04/28 00:15:22;;;;;;;13.98;8.57;;;;;;;16.26;62.45;100875.47;4984074;28;20051;-82
2022/04/28 00:17:48;;;;;;;18.35;10.60;;;;;;;16.23;62.61;100869.50;4981855;28;20046;-82
2022/04/28 00:20:13;;;;;;;36.15;15.68;;;;;;;16.22;62.56;100876.78;4980683;28;20062;-84
2022/04/28 00:22:39;;;;;;;38.95;17.40;;;;;;;16.17;62.72;100870.97;4997486;28;20050;-83
2022/04/28 00:25:05;;;;;;;41.03;20.60;;;;;;;16.07;63.12;100859.34;4986012;28;20042;-83
2022/04/28 00:27:31;;;;;;;38.25;20.10;;;;;;;16.17;63.26;100876.41;4984493;28;20030;-82
2022/04/28 00:29:57;;;;;;;66.40;34.28;;;;;;;16.08;63.14;100869.19;4976622;28;20033;-83
2022/04/28 00:32:22;;;;;;;55.55;31.00;;;;;;;16.05;63.38;100872.22;4977757;28;20094;-83
2022/04/28 00:34:48;;;;;;;53.00;30.00;;;;;;;16.06;63.52;100862.19;4977567;28;20343;-83
2022/04/28 00:37:14;;;;;;;33.47;18.25;;;;;;;16.05;63.72;100869.50;4977263;28;20374;-82
2022/04/28 00:39:40;;;;;;;18.27;10.10;;;;;;;16.00;63.47;100863.66;4977573;28;20027;-82
2022/04/28 00:42:10;;;;;;;18.58;9.68;;;;;;;15.94;63.11;100852.56;4977817;28;20022;-82
2022/04/28 00:44:36;;;;;;;18.95;8.65;;;;;;;15.86;63.71;100856.06;4977326;28;20023;-83
2022/04/28 00:47:02;;;;;;;18.10;8.48;;;;;;;15.82;63.52;100854.66;4976372;28;20026;-83
2022/04/28 00:52:11;;;;;;;17.23;7.30;;;;;;;15.81;63.64;100847.50;4977942;28;20037;-82
2022/04/28 00:54:37;;;;;;;17.92;7.13;;;;;;;15.78;64.43;100864.94;4978368;28;20030;-83
2022/04/28 00:57:03;;;;;;;17.15;7.13;;;;;;;15.66;64.26;100838.19;4977623;28;20097;-84
2022/04/28 00:59:30;;;;;;;16.40;7.50;;;;;;;15.74;64.37;100847.31;4977669;28;20023;-83
2022/04/28 01:01:55;;;;;;;12.35;7.22;;;;;;;15.74;64.02;100844.59;4978289;28;20046;-83
2022/04/28 01:04:20;;;;;;;19.98;8.85;;;;;;;15.72;64.63;100837.59;4978408;28;20039;-83
2022/04/28 01:06:46;;;;;;;20.80;7.85;;;;;;;15.89;64.31;100863.91;4975412;28;20408;-83
2022/04/28 01:09:14;;;;;;;35.38;8.07;;;;;;;15.82;64.19;100835.66;4976093;28;20035;-83
2022/04/28 01:11:40;;;;;;;15.85;7.50;;;;;;;15.83;64.24;100844.66;4976516;28;20105;-82
2022/04/28 01:14:06;;;;;;;16.08;7.78;;;;;;;15.83;64.42;100848.22;4976887;28;20037;-83
2022/04/28 01:16:31;;;;;;;17.60;8.80;;;;;;;15.71;64.48;100835.91;4976736;28;20461;-83
2022/04/28 01:18:58;;;;;;;27.92;13.50;;;;;;;15.68;64.81;100841.63;4976762;28;20058;-83
2022/04/28 01:21:24;;;;;;;21.52;9.98;;;;;;;15.71;64.80;100844.03;4976702;28;20035;-83
2022/04/28 01:23:51;;;;;;;23.20;8.85;;;;;;;15.72;65.04;100853.84;4977707;28;20097;-83
2022/04/28 01:26:16;;;;;;;30.02;8.85;;;;;;;15.69;65.36;100843.31;4976579;28;20023;-83
2022/04/28 01:28:42;;;;;;;19.77;9.00;;;;;;;15.58;65.37;100832.69;4977008;28;20547;-83
2022/04/28 01:31:07;;;;;;;18.10;8.38;;;;;;;15.62;65.59;100853.94;4977374;28;20030;-83
2022/04/28 01:33:33;;;;;;;19.70;9.30;;;;;;;15.66;65.69;100870.72;4976842;28;20035;-83
2022/04/28 01:35:59;;;;;;;15.07;8.80;;;;;;;15.55;66.03;100857.38;4976763;28;20033;-83
2022/04/28 01:38:25;;;;;;;20.77;9.18;;;;;;;15.45;66.09;100832.16;4976357;28;20093;-83
2022/04/28 01:40:51;;;;;;;13.30;8.25;;;;;;;15.39;66.38;100832.75;4976196;28;20030;-83
2022/04/28 01:43:17;;;;;;;14.43;9.30;;;;;;;15.57;66.47;100860.78;4976283;28;20058;-83
2022/04/28 01:45:42;;;;;;;11.63;7.75;;;;;;;15.35;66.86;100831.38;4977311;28;20038;-82
2022/04/28 01:48:08;;;;;;;23.05;9.02;;;;;;;15.42;67.09;100846.00;4976437;28;20505;-82
2022/04/28 01:50:34;;;;;;;22.40;9.38;;;;;;;15.29;67.26;100840.09;4977290;28;20027;-83
2022/04/28 01:55:43;;;;;;;18.50;8.90;;;;;;;15.40;66.96;100848.03;4979577;28;20054;-83
2022/04/28 01:58:09;;;;;;;20.80;9.55;;;;;;;15.50;66.75;100849.72;4978092;28;20027;-82
2022/04/28 02:00:34;;;;;;;22.15;8.80;;;;;;;15.49;66.81;100858.84;4975958;28;20389;-82
2022/04/28 02:03:00;;;;;;;14.60;8.05;;;;;;;15.40;66.86;100842.59;4975791;28;20519;-83
2022/04/28 02:05:25;;;;;;;19.73;8.95;;;;;;;15.27;67.24;100835.69;4975753;28;20397;-82
2022/04/28 02:07:51;;;;;;;17.10;8.60;;;;;;;15.30;67.51;100836.38;4974016;28;20038;-83
2022/04/28 02:10:16;;;;;;;15.27;8.13;;;;;;;15.38;67.65;100861.72;4978732;28;20034;-83
2022/04/28 02:12:42;;;;;;;14.65;6.80;;;;;;;15.17;67.13;100837.56;4980267;28;20050;-82
2022/04/28 02:15:08;;;;;;;16.85;8.38;;;;;;;15.28;66.95;100847.38;4981571;28;20031;-82
2022/04/28 02:17:37;;;;;;;14.60;8.45;;;;;;;15.40;67.04;100848.88;4977418;28;20031;-83
2022/04/28 02:20:04;;;;;;;17.08;6.65;;;;;;;15.27;67.25;100838.38;4974599;28;20129;-83
2022/04/28 02:22:30;;;;;;;15.52;7.55;;;;;;;15.37;66.97;100848.31;4975889;28;20022;-83
2022/04/28 02:24:56;;;;;;;10.18;7.10;;;;;;;15.40;66.60;100850.72;4975647;28;20035;-83
2022/04/28 02:27:21;;;;;;;23.27;7.40;;;;;;;15.38;66.78;100841.91;4975585;28;20034;-83
2022/04/28 02:29:46;;;;;;;14.90;6.90;;;;;;;15.32;66.54;100832.50;4975264;28;20401;-83
2022/04/28 02:32:12;;;;;;;13.73;7.18;;;;;;;15.40;66.92;100848.88;4975293;28;20034;-83
2022/04/28 02:34:37;;;;;;;13.45;7.20;;;;;;;15.46;66.46;100848.28;4975465;28;20494;-83
2022/04/28 02:37:03;;;;;;;18.88;7.32;;;;;;;15.48;66.21;100859.84;4975762;28;20037;-83
2022/04/28 02:39:29;;;;;;;16.30;7.47;;;;;;;15.42;66.07;100840.59;4974858;28;20037;-83
2022/04/28 02:41:54;;;;;;;21.90;7.63;;;;;;;15.39;66.19;100827.34;4975239;28;20034;-84
2022/04/28 02:44:20;;;;;;;17.23;7.82;;;;;;;15.44;66.41;100833.19;4975320;28;20408;-83
2022/04/28 02:46:45;;;;;;;12.85;6.43;;;;;;;15.49;66.23;100836.31;4975586;28;20484;-83
2022/04/28 02:49:13;;;;;;;19.00;7.65;;;;;;;15.62;66.07;100850.38;4975528;28;20034;-84
2022/04/28 02:51:39;;;;;;;15.65;6.90;;;;;;;15.60;65.50;100849.66;4974799;28;20051;-84
2022/04/28 02:54:06;;;;;;;10.20;6.50;;;;;;;15.69;65.48;100865.00;4975131;28;20062;-84
2022/04/28 02:56:32;;;;;;;18.85;7.50;;;;;;;15.57;65.48;100839.97;4977457;28;20062;-84
2022/04/28 02:58:58;;;;;;;14.70;8.18;;;;;;;15.65;65.70;100864.47;4981636;28;20034;-83
2022/04/28 03:01:24;;;;;;;15.30;7.00;;;;;;;15.59;65.54;100858.81;4980446;28;20502;-83
2022/04/28 03:03:50;;;;;;;11.75;6.78;;;;;;;15.51;65.75;100861.41;4975343;28;20031;-83
2022/04/28 03:11:56;;;;;;;21.95;8.63;;;;;;;15.50;65.55;100866.00;4975185;28;20045;-84
2022/04/28 03:14:22;;;;;;;19.52;9.50;;;;;;;15.48;65.80;100867.13;4974828;28;20030;-83
2022/04/28 03:16:47;;;;;;;15.07;8.02;;;;;;;15.32;65.92;100854.19;4974943;28;20464;-83
2022/04/28 03:19:13;;;;;;;18.60;7.40;;;;;;;15.33;65.82;100865.88;4975149;28;20058;-84
2022/04/28 03:21:39;;;;;;;23.15;8.27;;;;;;;15.32;65.81;100861.47;4974428;28;20054;-83
2022/04/28 03:24:05;;;;;;;24.95;8.98;;;;;;;15.34;65.91;100871.16;4972956;28;20042;-82
2022/04/28 03:26:31;;;;;;;29.63;7.88;;;;;;;15.34;65.22;100871.16;4974952;28;20035;-82
2022/04/28 03:28:57;;;;;;;19.25;6.63;;;;;;;15.37;65.24;100878.13;4973426;28;20027;-83
2022/04/28 03:31:23;;;;;;;21.60;7.65;;;;;;;15.23;65.21;100863.19;4978970;28;20035;-82
2022/04/28 03:33:48;;;;;;;15.98;7.53;;;;;;;15.26;65.61;100874.59;4988577;28;20041;-82
2022/04/28 03:38:58;;;;;;;27.67;7.93;;;;;;;15.27;65.77;100881.75;4974649;28;20038;-82
2022/04/28 03:41:24;;;;;;;40.47;8.25;;;;;;;15.27;65.64;100887.16;4973337;28;20027;-82
2022/04/28 03:43:49;;;;;;;37.75;8.73;;;;;;;15.22;65.91;100886.78;4974478;28;20035;-83
2022/04/28 03:46:15;;;;;;;36.92;7.53;;;;;;;15.18;65.94;100882.63;4974317;28;20058;-82
2022/04/28 03:48:41;;;;;;;38.67;9.07;;;;;;;15.13;66.09;100884.94;4973919;28;20030;-82
2022/04/28 03:51:06;;;;;;;40.08;10.38;;;;;;;15.10;66.73;100890.66;4973839;28;20077;-82
2022/04/28 03:53:32;;;;;;;67.93;10.80;;;;;;;15.08;66.63;100902.63;4974527;28;20031;-83
2022/04/28 03:55:58;;;;;;;40.88;10.05;;;;;;;15.09;66.93;100893.50;4974877;28;20027;-82
2022/04/28 03:58:26;;;;;;;49.15;11.18;;;;;;;15.07;67.51;100906.34;4974674;28;20084;-79
2022/04/28 04:00:52;;;;;;;83.47;12.32;;;;;;;15.08;67.66;100892.63;4974415;28;20113;-82
2022/04/28 04:03:21;;;;;;;76.28;11.80;;;;;;;15.11;67.58;100903.19;4975329;28;20026;-80
2022/04/28 04:05:47;;;;;;;51.15;12.10;;;;;;;15.18;67.65;100898.03;4974727;28;20114;-80
2022/04/28 04:08:13;;;;;;;79.32;11.43;;;;;;;15.23;67.59;100901.13;4974364;28;20066;-78
2022/04/28 04:10:39;;;;;;;62.08;11.65;;;;;;;15.27;67.43;100902.56;4974364;28;20474;-78
2022/04/28 04:13:05;;;;;;;49.78;12.25;;;;;;;15.29;67.70;100911.38;4973033;28;20073;-79
2022/04/28 04:15:32;;;;;;;57.95;14.23;;;;;;;15.24;67.64;100892.88;4973126;28;20387;-82
2022/04/28 04:17:58;;;;;;;59.05;12.82;;;;;;;15.35;67.97;100899.13;4973533;28;20425;-81
2022/04/28 04:20:23;;;;;;;86.57;15.40;;;;;;;15.40;67.76;100894.97;4974384;28;20054;-82
2022/04/28 04:22:48;;;;;;;83.55;16.63;;;;;;;15.37;67.88;100888.97;4974326;28;20035;-82
2022/04/28 04:25:14;;;;;;;78.60;14.77;;;;;;;15.45;67.73;100891.78;4974548;28;20473;-82
2022/04/28 04:27:40;;;;;;;47.15;13.52;;;;;;;15.51;68.31;100897.50;4975097;28;20053;-82
2022/04/28 04:32:50;;;;;;;42.53;12.88;;;;;;;15.72;68.33;100897.25;4974812;28;20114;-81
2022/04/28 04:35:17;;;;;;;31.35;11.55;;;;;;;15.65;68.63;100890.75;4974279;28;20470;-81
2022/04/28 04:37:43;;;;;;;63.95;14.85;;;;;;;15.78;68.55;100888.50;4973883;28;20034;-80
2022/04/28 04:40:11;;;;;;;43.97;12.55;;;;;;;15.88;68.63;100896.59;4973925;28;20041;-83
2022/04/28 04:42:36;;;;;;;27.85;9.65;;;;;;;15.91;68.44;100875.44;4976141;28;20027;-82
2022/04/28 04:45:02;;;;;;;51.03;10.43;;;;;;;16.02;67.97;100896.09;4977798;28;20061;-82
2022/04/28 04:47:28;;;;;;;45.72;10.60;;;;;;;16.14;68.00;100890.28;4976327;28;20041;-82
2022/04/28 04:49:53;;;;;;;62.97;12.55;;;;;;;16.24;67.73;100891.03;4977206;28;20404;-83
2022/04/28 04:52:19;;;;;;;22.77;8.98;;;;;;;16.19;67.77;100890.66;4977120;28;20042;-82
2022/04/28 04:54:44;;;;;;;29.88;8.60;;;;;;;16.32;67.88;100899.28;4977279;28;20050;-81
2022/04/28 04:57:09;;;;;;;46.83;9.90;;;;;;;16.29;68.01;100899.59;4977543;28;20023;-82
2022/04/28 04:59:35;;;;;;;38.80;9.32;;;;;;;16.32;67.83;100896.56;4977109;28;20027;-82
2022/04/28 05:02:00;;;;;;;61.08;13.27;;;;;;;16.39;68.04;100899.50;4975968;28;20045;-82
2022/04/28 05:04:26;;;;;;;32.25;11.13;;;;;;;16.52;67.45;100909.97;4977043;28;20492;-81
2022/04/28 05:06:51;;;;;;;45.90;11.45;;;;;;;16.62;67.40;100919.78;4978860;28;20031;-82
2022/04/28 05:09:17;;;;;;;26.50;10.00;;;;;;;16.72;66.95;100925.13;4993083;28;20054;-81
2022/04/28 05:11:42;;;;;;;43.20;11.68;;;;;;;16.68;66.33;100918.28;4977071;28;20054;-82
2022/04/28 05:14:08;;;;;;;24.77;10.70;;;;;;;16.67;66.83;100927.44;4976362;28;20023;-81
2022/04/28 05:16:33;;;;;;;25.23;9.57;;;;;;;16.76;66.52;100923.78;4976321;28;20045;-81
2022/04/28 05:18:59;;;;;;;28.92;9.55;;;;;;;16.86;66.24;100927.25;4976268;28;20449;-81
2022/04/28 05:21:25;;;;;;;17.48;7.55;;;;;;;16.80;65.72;100922.47;4976244;28;20057;-81
2022/04/28 05:23:51;;;;;;;19.30;8.73;;;;;;;16.84;65.63;100910.28;4976526;28;20051;-82
2022/04/28 05:26:17;;;;;;;35.72;9.32;;;;;;;17.04;65.25;100925.34;4976303;28;20117;-82
2022/04/28 05:28:43;;;;;;;23.35;8.90;;;;;;;17.12;64.80;100933.59;4975867;28;20031;-82
2022/04/28 05:31:08;;;;;;;28.05;7.78;;;;;;;17.19;64.24;100923.75;4976353;28;20054;-81
2022/04/28 05:33:34;;;;;;;22.05;7.82;;;;;;;17.26;63.90;100935.72;4976334;28;20019;-81
2022/04/28 05:36:00;;;;;;;47.42;11.00;;;;;;;17.40;62.84;100937.81;4975569;28;20119;-82
2022/04/28 05:38:27;;;;;;;22.27;7.80;;;;;;;17.38;61.88;100937.16;4976054;28;20030;-82
2022/04/28 05:40:52;;;;;;;45.45;8.57;;;;;;;17.48;61.45;100938.91;4975933;28;20037;-82
2022/04/28 05:46:02;;;;;;;26.45;9.63;;;;;;;17.55;61.08;100940.81;4975592;28;20515;-82
2022/04/28 05:48:27;;;;;;;48.22;10.95;;;;;;;17.59;60.74;100942.22;4975874;28;20026;-82
2022/04/28 05:50:53;;;;;;;27.02;6.93;;;;;;;17.65;60.26;100929.81;4975520;28;20486;-83
2022/04/28 05:53:18;;;;;;;24.92;6.45;;;;;;;17.75;58.88;100930.56;4975990;28;20022;-82
2022/04/28 05:55:45;;;;;;;46.17;7.97;;;;;;;17.87;58.97;100934.69;4990318;28;20030;-82
2022/04/28 05:58:11;;;;;;;26.30;7.82;;;;;;;17.94;58.68;100930.31;4978933;28;20053;-81
2022/04/28 06:00:36;;;;;;;63.80;9.35;;;;;;;18.02;56.66;100946.66;4975268;28;20030;-81
2022/04/28 06:03:02;;;;;;;30.13;5.97;;;;;;;17.99;57.11;100929.78;4975088;28;20501;-82
2022/04/28 06:05:27;;;;;;;35.58;9.23;;;;;;;18.08;57.94;100943.25;4975399;28;20034;-82
2022/04/28 06:07:53;;;;;;;29.23;6.45;;;;;;;18.13;56.33;100940.06;4973904;28;20054;-81
2022/04/28 06:10:19;;;;;;;15.07;5.68;;;;;;;18.12;54.23;100949.22;4975442;28;20441;-79
2022/04/28 06:12:45;;;;;;;19.17;4.13;;;;;;;18.03;54.22;100951.09;4974840;28;20022;-79
2022/04/28 06:15:11;;;;;;;9.18;4.50;;;;;;;17.95;54.44;100948.31;4974372;28;20495;-79
2022/04/28 06:17:37;;;;;;;10.52;4.03;;;;;;;18.04;54.40;100951.94;4974982;28;20393;-80
2022/04/28 06:20:03;;;;;;;19.42;5.93;;;;;;;18.11;54.61;100940.22;4974515;28;20055;-79
2022/04/28 06:22:29;;;;;;;29.48;4.22;;;;;;;18.24;53.71;100945.19;4974371;28;20038;-80
2022/04/28 06:24:55;;;;;;;13.25;4.80;;;;;;;18.30;53.10;100948.09;4974360;28;20090;-80
2022/04/28 06:27:21;;;;;;;11.25;3.65;;;;;;;18.36;52.20;100941.13;4972660;28;20035;-80
2022/04/28 06:29:49;;;;;;;10.32;3.55;;;;;;;18.32;51.26;100942.47;4975091;28;20113;-80
2022/04/28 06:32:18;;;;;;;16.73;4.57;;;;;;;18.41;51.94;100946.91;4981372;28;20508;-80
2022/04/28 06:34:46;;;;;;;11.25;4.28;;;;;;;18.43;52.64;100947.63;4980565;28;20035;-78
2022/04/28 06:37:14;;;;;;;28.40;5.18;;;;;;;18.30;51.33;100931.75;4983855;28;20053;-78
2022/04/28 06:39:40;;;;;;;32.35;5.78;;;;;;;18.41;52.38;100944.19;4975516;28;20031;-81
2022/04/28 06:42:07;;;;;;;7.93;4.57;;;;;;;18.53;52.21;100947.50;4974365;28;20034;-81
2022/04/28 06:44:33;;;;;;;21.13;3.63;;;;;;;18.53;51.76;100959.22;4979308;28;20412;-80
2022/04/28 06:46:58;;;;;;;19.80;6.72;;;;;;;18.66;51.26;100953.28;4981246;28;20109;-81
2022/04/28 06:49:23;;;;;;;18.42;4.60;;;;;;;18.78;51.15;100969.13;4973657;28;20412;-81
2022/04/28 06:51:49;;;;;;;15.02;4.90;;;;;;;18.79;50.19;100970.00;4973786;28;20102;-81
2022/04/28 06:54:14;;;;;;;13.43;4.03;;;;;;;18.85;50.71;100970.16;4973574;28;20023;-80
2022/04/28 06:56:40;;;;;;;18.67;4.40;;;;;;;18.91;51.17;100957.72;4973491;28;20034;-79
2022/04/28 06:59:06;;;;;;;8.85;3.15;;;;;;;19.07;50.22;100971.38;4973960;28;20038;-80
2022/04/28 07:01:32;;;;;;;8.60;3.03;;;;;;;19.15;48.38;100959.56;4973685;28;20033;-80
2022/04/28 07:03:57;;;;;;;8.25;2.88;;;;;;;19.12;47.34;100955.31;4973560;28;20035;-80
2022/04/28 07:06:23;;;;;;;12.32;2.80;;;;;;;19.15;47.21;100954.97;4973497;28;20480;-80
2022/04/28 07:08:48;;;;;;;8.07;3.55;;;;;;;19.33;46.09;100962.97;4973663;28;20030;-80
2022/04/28 07:11:13;;;;;;;22.02;3.75;;;;;;;19.39;46.66;100962.28;4973171;28;20026;-81
2022/04/28 07:13:39;;;;;;;8.38;3.22;;;;;;;19.40;45.86;100969.47;4973404;28;20027;-78
2022/04/28 07:16:05;;;;;;;4.78;2.63;;;;;;;19.52;46.00;100971.66;4973742;28;20031;-81
2022/04/28 07:18:31;;;;;;;5.32;2.53;;;;;;;19.57;45.89;100970.31;4974166;28;20042;-79
2022/04/28 07:20:58;;;;;;;11.68;3.60;;;;;;;19.66;46.29;100975.56;4973474;28;20086;-80
2022/04/28 07:23:23;;;;;;;9.02;3.55;;;;;;;19.81;45.72;100978.41;4973354;28;20037;-80
2022/04/28 07:25:50;;;;;;;10.02;3.60;;;;;;;19.87;45.21;100975.84;4973490;28;20030;-79
2022/04/28 07:28:15;;;;;;;28.70;3.92;;;;;;;19.81;44.95;100978.41;4973686;28;20110;-81
2022/04/28 07:30:40;;;;;;;10.70;2.80;;;;;;;19.80;45.59;100982.16;4988757;28;20410;-79
2022/04/28 07:33:08;;;;;;;10.55;2.28;;;;;;;19.62;43.70;100990.56;4972411;28;20022;-81
2022/04/28 07:35:34;;;;;;;10.88;3.35;;;;;;;19.63;44.99;100983.25;4973585;28;20078;-79
2022/04/28 07:37:59;;;;;;;8.70;2.90;;;;;;;19.76;44.79;100991.72;4973185;28;20030;-79
2022/04/28 07:40:25;;;;;;;101.35;12.27;;;;;;;19.80;45.39;100993.06;4971917;28;20485;-80
2022/04/28 07:42:50;;;;;;;9.50;3.67;;;;;;;19.79;45.01;100991.38;4971572;28;20524;-80
2022/04/28 07:45:17;;;;;;;8.57;3.03;;;;;;;19.93;45.62;100993.38;4977297;28;20022;-79
2022/04/28 07:47:42;;;;;;;29.88;3.85;;;;;;;19.95;45.76;100994.91;4976276;28;20130;-79
2022/04/28 07:50:08;;;;;;;16.73;4.03;;;;;;;19.90;45.68;100988.28;4972560;28;20062;-79
2022/04/28 07:52:33;;;;;;;18.92;3.35;;;;;;;19.75;45.33;100995.50;4972006;28;20033;-80
2022/04/28 07:54:59;;;;;;;27.27;4.18;;;;;;;19.86;45.96;100997.84;4971516;28;20031;-80
2022/04/28 07:57:25;;;;;;;15.82;3.85;;;;;;;19.90;45.50;100991.84;4973070;28;20037;-79
2022/04/28 07:59:51;;;;;;;10.52;3.45;;;;;;;20.09;45.71;100994.16;4972928;28;20026;-79
2022/04/28 08:02:17;;;;;;;6.30;3.03;;;;;;;20.11;45.58;100996.72;4971668;28;20131;-79
2022/04/28 08:04:43;;;;;;;10.52;3.97;;;;;;;20.22;45.13;100988.13;4955108;28;20046;-79
2022/04/28 08:07:08;;;;;;;16.50;4.20;;;;;;;20.17;44.97;100989.69;4972846;28;20150;-79
2022/04/28 08:09:34;;;;;;;6.15;2.53;;;;;;;20.33;43.53;100990.50;4972832;28;20034;-80
2022/04/28 08:11:59;;;;;;;8.68;3.67;;;;;;;20.35;43.77;100988.44;4972512;28;20453;-79
2022/04/28 08:14:25;;;;;;;5.32;2.60;;;;;;;20.38;43.39;101004.47;4974781;28;20030;-80
2022/04/28 08:16:52;;;;;;;11.38;2.67;;;;;;;20.27;42.81;100991.22;4974642;28;20030;-79
2022/04/28 08:19:19;;;;;;;9.02;3.00;;;;;;;20.44;43.44;101003.75;4975349;28;20506;-80
2022/04/28 08:21:49;;;;;;;28.67;3.75;;;;;;;20.33;42.19;101006.91;4991447;28;20034;-81
2022/04/28 08:24:16;;;;;;;3.92;2.10;;;;;;;20.39;42.45;101011.66;4978740;28;20088;-80
2022/04/28 08:26:42;;;;;;;18.50;4.78;;;;;;;20.46;43.07;101011.75;4976139;28;20257;-80
2022/04/28 08:29:08;;;;;;;5.50;2.13;;;;;;;20.57;43.21;101020.41;4976239;28;20038;-80
2022/04/28 08:31:34;;;;;;;8.88;2.90;;;;;;;20.55;42.76;101016.13;4976077;28;20031;-80
2022/04/28 08:34:02;;;;;;;12.38;3.28;;;;;;;20.60;42.81;101022.78;4976179;28;20026;-80
2022/04/28 08:36:28;;;;;;;9.75;3.42;;;;;;;20.64;42.45;101020.53;4975342;28;20493;-80
2022/04/28 08:38:53;;;;;;;9.30;2.92;;;;;;;20.34;42.43;101026.84;4976953;28;20037;-80
2022/04/28 08:41:35;;;;;;;8.13;1.90;;;;;;;20.29;42.34;101019.19;4976236;28;20097;-80
2022/04/28 08:44:03;;;;;;;7.38;2.60;;;;;;;20.14;43.26;101018.22;4976380;28;20031;-80
2022/04/28 08:46:50;;;;;;;16.30;3.28;;;;;;;20.25;44.53;101034.19;4975908;28;20454;-81
2022/04/28 08:49:18;;;;;;;7.68;2.50;;;;;;;20.08;42.94;101035.31;4988361;28;20062;-80
2022/04/28 08:51:44;;;;;;;8.95;2.30;;;;;;;20.22;43.42;101041.91;4976028;28;20022;-81
2022/04/28 08:54:11;;;;;;;7.45;2.25;;;;;;;20.43;43.56;101039.44;4975846;28;20409;-80
2022/04/28 08:56:38;;;;;;;9.55;2.97;;;;;;;20.52;43.63;101039.22;4975352;28;20512;-80
2022/04/28 08:59:04;;;;;;;11.40;2.65;;;;;;;20.69;43.31;101041.88;4974945;28;20054;-80
2022/04/28 09:01:29;;;;;;;5.82;2.33;;;;;;;20.87;43.21;101040.56;4974128;28;20058;-78
2022/04/28 09:03:56;;;;;;;12.13;2.72;;;;;;;20.88;42.47;101044.16;4975857;28;20050;-79
2022/04/28 09:06:24;;;;;;;9.88;2.25;;;;;;;20.88;42.29;101044.16;4975873;28;20083;-81
2022/04/28 09:08:51;;;;;;;26.10;3.15;;;;;;;20.97;42.77;101048.53;4974240;28;20030;-81
2022/04/28 09:11:22;;;;;;;7.53;2.58;;;;;;;21.04;42.71;101044.00;4990544;28;20453;-80
2022/04/28 09:14:14;;;;;;;22.48;3.08;;;;;;;21.10;43.61;101054.25;4975250;28;20026;-80
2022/04/28 09:16:43;;;;;;;13.40;3.53;;;;;;;21.28;43.62;101046.59;4975391;28;20049;-81
2022/04/28 09:19:16;;;;;;;7.15;3.17;;;;;;;21.28;43.39;101041.13;4979599;28;20134;-80
2022/04/28 09:21:42;;;;;;;9.82;2.45;;;;;;;21.20;42.08;101049.38;4975712;28;20062;-80
2022/04/28 09:24:13;;;;;;;14.15;2.45;;;;;;;21.41;42.48;101052.28;4975337;28;20046;-80
2022/04/28 09:26:39;;;;;;;17.92;2.67;;;;;;;21.53;42.18;101059.00;4974790;28;20078;-80
2022/04/28 09:29:06;;;;;;;8.63;2.63;;;;;;;21.62;42.19;101049.69;4974396;28;20027;-80
2022/04/28 09:31:37;;;;;;;5.65;2.17;;;;;;;21.72;41.98;101054.91;4974394;28;20037;-80
2022/04/28 09:34:09;;;;;;;3.95;2.47;;;;;;;21.66;41.16;101042.81;4974509;28;20062;-80
2022/04/28 09:36:37;;;;;;;17.90;7.70;;;;;;;21.55;41.29;101053.38;4975952;28;20027;-80
2022/04/28 09:39:07;;;;;;;14.43;2.33;;;;;;;21.50;40.86;101051.16;4974981;28;20031;-79
2022/04/28 09:44:21;;;;;;;3.67;2.55;;;;;;;21.20;41.68;101059.47;4974485;28;20041;-79
2022/04/28 09:46:49;;;;;;;8.88;2.72;;;;;;;21.21;42.23;101051.09;4975002;28;20031;-79
2022/04/28 09:49:17;;;;;;;8.10;2.65;;;;;;;21.08;41.65;101050.81;4975206;28;20023;-80
2022/04/28 09:51:43;;;;;;;7.65;2.80;;;;;;;21.02;42.42;101062.50;4973470;28;20420;-80
2022/04/28 09:54:11;;;;;;;3.28;2.00;;;;;;;21.22;42.39;101058.28;4974922;28;20105;-79
2022/04/28 09:56:39;;;;;;;7.90;2.75;;;;;;;21.39;42.73;101046.16;4985822;28;20081;-79
2022/04/28 09:59:09;;;;;;;12.88;2.97;;;;;;;21.59;42.68;101049.19;4987517;28;20117;-79
2022/04/28 10:01:37;;;;;;;11.68;3.47;;;;;;;21.55;42.30;101053.38;4975436;28;20031;-79
2022/04/28 10:04:08;;;;;;;24.20;9.13;;;;;;;21.52;41.40;101049.13;4974502;28;20500;-80
2022/04/28 10:06:35;;;;;;;12.93;3.13;;;;;;;21.45;41.73;101053.63;4973468;28;20114;-79
2022/04/28 10:09:14;;;;;;;4.63;2.40;;;;;;;21.60;42.08;101051.78;4973036;28;20042;-80
2022/04/28 10:11:40;;;;;;;24.83;4.22;;;;;;;21.82;42.08;101052.75;4973232;28;20056;-80
2022/04/28 10:14:09;;;;;;;10.30;2.45;;;;;;;21.79;40.59;101060.47;4974272;28;20517;-81
2022/04/28 10:16:38;;;;;;;13.15;3.08;;;;;;;21.68;41.72;101048.94;4974059;28;20499;-81
2022/04/28 10:19:15;;;;;;;15.90;3.28;;;;;;;22.03;41.63;101049.28;4973865;28;20523;-83
2022/04/28 10:21:52;;;;;;;7.93;2.55;;;;;;;22.14;41.03;101054.28;4974556;28;20390;-84
2022/04/28 10:33:00;;;;;;;18.33;2.65;;;;;;;22.52;40.73;101055.00;4974114;28;20420;-80
2022/04/28 10:35:36;;;;;;;;;;;;;;;22.50;40.80;101049.75;4974548;28;20042;-80
2022/04/28 10:38:26;;;;;;;12.15;3.38;;;;;;;22.51;41.09;101050.56;4973974;28;19910;-80
2022/04/28 10:41:03;;;;;;;18.17;3.85;;;;;;;22.67;40.66;101048.50;4972627;28;20042;-80
2022/04/28 10:43:32;;;;;;;8.90;3.40;;;;;;;22.76;40.43;101044.59;4973821;28;20088;-80
2022/04/28 10:46:01;;;;;;;5.47;2.05;;;;;;;22.71;39.65;101041.59;4973688;28;20057;-80
2022/04/28 10:48:30;;;;;;;9.00;3.25;;;;;;;22.83;39.84;101049.31;4973846;28;20065;-81
2022/04/28 10:51:15;;;;;;;20.42;4.10;;;;;;;22.86;40.26;101044.28;4975821;28;20033;-79
2022/04/28 10:53:58;;;;;;;5.10;2.63;;;;;;;22.87;39.14;101045.13;4974690;28;20515;-81
2022/04/28 10:56:27;;;;;;;3.38;2.30;;;;;;;22.79;39.60;101032.38;4973202;28;20061;-81
2022/04/28 10:59:00;;;;;;;7.45;2.78;;;;;;;23.02;39.34;101040.44;4976766;28;20027;-81
2022/04/28 11:01:34;;;;;;;8.95;2.92;;;;;;;23.02;39.24;101046.78;4998723;28;20559;-81
2022/04/28 11:04:01;;;;;;;14.88;2.92;;;;;;;23.02;39.41;101049.53;4983020;28;20042;-83
2022/04/28 11:06:48;;;;;;;7.30;2.90;;;;;;;23.16;39.50;101053.22;4982150;28;20027;-81
2022/04/28 11:09:14;;;;;;;3.15;2.33;;;;;;;22.99;39.72;101049.06;4975466;28;20089;-79
2022/04/28 11:11:45;;;;;;;4.13;2.35;;;;;;;23.06;39.57;101049.97;4973186;28;20401;-80
2022/04/28 11:14:11;;;;;;;9.52;2.70;;;;;;;22.64;39.77;101045.25;4972948;28;20034;-80
2022/04/28 11:16:40;;;;;;;7.85;2.42;;;;;;;22.86;39.76;101047.03;4972888;28;20062;-81
2022/04/28 11:19:07;;;;;;;11.57;2.70;;;;;;;23.03;39.62;101053.94;4973092;28;20138;-80
2022/04/28 11:21:35;;;;;;;5.20;2.35;;;;;;;22.98;39.65;101036.38;4972925;28;20026;-81
2022/04/28 11:24:03;;;;;;;10.43;3.28;;;;;;;23.06;39.07;101049.97;4972078;28;20033;-81
2022/04/28 11:26:29;;;;;;;11.43;2.55;;;;;;;22.94;39.82;101048.78;4972433;28;20038;-81
2022/04/28 11:28:54;;;;;;;5.97;2.38;;;;;;;23.08;38.94;101042.41;4973231;28;20485;-80
2022/04/28 11:31:22;;;;;;;15.57;2.72;;;;;;;23.01;39.30;101034.09;4973727;28;20034;-80
2022/04/28 11:33:50;;;;;;;9.88;2.58;;;;;;;23.00;39.64;101045.25;4995610;28;20077;-80
2022/04/28 11:36:28;;;;;;;9.93;2.67;;;;;;;22.95;39.27;101047.75;4975018;28;20031;-81
2022/04/28 11:39:02;;;;;;;4.43;2.35;;;;;;;22.83;39.65;101049.31;4972820;28;20042;-81
2022/04/28 11:41:35;;;;;;;3.97;2.22;;;;;;;22.80;39.35;101038.72;4972099;28;20113;-81
2022/04/28 11:44:13;;;;;;;12.55;2.90;;;;;;;23.04;39.27;101043.81;4955948;28;20039;-81
2022/04/28 11:46:45;;;;;;;15.25;9.13;;;;;;;22.96;39.37;101042.06;4971877;28;20173;-81